Time;durP1;ratioP1;P1;durP2;ratioP2;P2;SDS_P1;SDS_P2;PMS_P1;PMS_P2;Temp;Humidity;BMP_temperature;BMP_pressure;BME280_temperature;BME280_humidity;BME280_pressure;Samples;Min_cycle;Max_cycle;Signal;HPM_P1;HPM_P2
2022/10/14 00:02:14;;;;;;;27.55;11.38;;;12.20;99.90;;;;;;5093117;28;20425;-60
2022/10/14 00:04:39;;;;;;;29.40;12.52;;;12.20;99.90;;;;;;5091764;28;20042;-64
2022/10/14 00:07:05;;;;;;;26.65;10.77;;;12.30;99.90;;;;;;5092908;28;20539;-49
2022/10/14 00:09:30;;;;;;;31.40;11.98;;;12.30;99.90;;;;;;5092485;28;20016;-50
2022/10/14 00:11:56;;;;;;;30.88;11.25;;;12.30;99.90;;;;;;5090909;28;20032;-51
2022/10/14 00:14:22;;;;;;;30.85;12.32;;;12.30;99.90;;;;;;5092477;28;20025;-50
2022/10/14 00:16:51;;;;;;;28.10;11.77;;;12.30;99.90;;;;;;5092549;28;20016;-48
2022/10/14 00:19:16;;;;;;;31.75;12.68;;;12.30;99.90;;;;;;5091972;28;20078;-51
2022/10/14 00:21:43;;;;;;;32.35;12.30;;;12.30;99.90;;;;;;5092861;28;20024;-56
2022/10/14 00:24:11;;;;;;;30.02;10.85;;;12.30;99.90;;;;;;5093094;28;20484;-50
2022/10/14 00:26:38;;;;;;;31.73;11.80;;;12.30;99.90;;;;;;5091657;28;20111;-53
2022/10/14 00:29:07;;;;;;;32.60;12.80;;;12.30;99.90;;;;;;5092469;28;20485;-49
2022/10/14 00:31:33;;;;;;;29.40;11.90;;;12.30;99.90;;;;;;5091578;28;20074;-53
2022/10/14 00:33:59;;;;;;;39.50;12.27;;;12.20;99.90;;;;;;5091398;28;20035;-55
2022/10/14 00:36:25;;;;;;;34.40;13.05;;;12.20;99.90;;;;;;5090027;28;20020;-56
2022/10/14 00:38:51;;;;;;;27.98;11.80;;;12.20;99.90;;;;;;5091664;28;20032;-53
2022/10/14 00:41:24;;;;;;;30.92;12.65;;;12.20;99.90;;;;;;5073610;28;20028;-56
2022/10/14 00:44:02;;;;;;;34.08;10.02;;;12.20;99.90;;;;;;5071148;28;20384;-52
2022/10/14 00:46:31;;;;;;;33.65;11.40;;;12.20;99.90;;;;;;5070896;28;20134;-54
2022/10/14 00:48:59;;;;;;;33.80;11.50;;;12.20;99.90;;;;;;5070850;28;20044;-59
2022/10/14 00:51:26;;;;;;;33.90;11.30;;;12.20;99.90;;;;;;5070908;28;20119;-54
2022/10/14 00:53:51;;;;;;;34.22;12.07;;;12.20;99.90;;;;;;5071333;28;20016;-50
2022/10/14 00:56:23;;;;;;;40.45;13.05;;;12.20;99.90;;;;;;5070809;28;20040;-48
2022/10/14 00:58:49;;;;;;;38.75;13.77;;;12.20;99.90;;;;;;5070878;28;20111;-58
2022/10/14 01:01:15;;;;;;;44.42;14.90;;;12.10;99.90;;;;;;5070752;28;20135;-55
2022/10/14 01:03:41;;;;;;;42.35;14.30;;;12.10;99.90;;;;;;5070617;28;20116;-56
2022/10/14 01:06:30;;;;;;;45.83;15.07;;;12.10;99.90;;;;;;5071011;28;20384;-55
2022/10/14 01:09:02;;;;;;;40.30;14.52;;;12.20;99.90;;;;;;5070550;28;20028;-59
2022/10/14 01:11:45;;;;;;;49.50;16.00;;;12.10;99.90;;;;;;5070585;28;20020;-55
2022/10/14 01:14:41;;;;;;;44.65;15.15;;;12.10;99.90;;;;;;5071006;28;20714;-54
2022/10/14 01:17:16;;;;;;;38.70;12.15;;;12.10;99.90;;;;;;5069616;28;20025;-55
2022/10/14 01:20:12;;;;;;;40.22;12.30;;;12.00;99.90;;;;;;5070352;28;20079;-54
2022/10/14 01:22:57;;;;;;;50.78;14.20;;;12.00;99.90;;;;;;5058212;28;20134;-53
2022/10/14 01:25:34;;;;;;;49.20;15.85;;;12.00;99.90;;;;;;5070705;28;20013;-52
2022/10/14 01:28:08;;;;;;;56.63;18.15;;;12.00;99.90;;;;;;5069351;28;20025;-55
2022/10/14 01:30:49;;;;;;;44.38;15.02;;;12.00;99.90;;;;;;5069881;28;20017;-53
2022/10/14 01:33:34;;;;;;;42.45;15.07;;;12.00;99.90;;;;;;5069493;28;20024;-51
2022/10/14 01:36:30;;;;;;;51.05;14.00;;;12.00;99.90;;;;;;5069466;28;20074;-54
2022/10/14 01:39:01;;;;;;;40.97;13.02;;;12.00;99.90;;;;;;5070284;28;20077;-51
2022/10/14 01:41:34;;;;;;;45.70;13.57;;;11.90;99.90;;;;;;5070344;28;20029;-58
2022/10/14 01:44:06;;;;;;;38.33;13.25;;;11.90;99.90;;;;;;5070030;28;20415;-58
2022/10/14 01:46:34;;;;;;;39.97;12.88;;;11.90;99.90;;;;;;5070625;28;20143;-60
2022/10/14 01:49:12;;;;;;;35.88;12.55;;;11.80;99.90;;;;;;5069340;28;20049;-64
2022/10/14 01:51:45;;;;;;;44.33;12.45;;;11.80;99.90;;;;;;5069540;28;20037;-63
2022/10/14 01:54:31;;;;;;;36.10;12.20;;;11.80;99.90;;;;;;5070595;28;20020;-68
2022/10/14 01:57:01;;;;;;;43.35;13.45;;;11.70;99.90;;;;;;5070399;28;20048;-60
2022/10/14 01:59:28;;;;;;;32.80;11.40;;;11.80;99.90;;;;;;5069322;28;20366;-55
2022/10/14 02:01:54;;;;;;;41.08;11.95;;;11.80;99.90;;;;;;5070094;28;20024;-55
2022/10/14 02:04:21;;;;;;;30.67;11.88;;;11.80;99.90;;;;;;5069418;28;20086;-54
2022/10/14 02:07:13;;;;;;;37.60;11.70;;;11.80;99.90;;;;;;5070177;28;20428;-55
2022/10/14 02:10:06;;;;;;;35.05;11.43;;;11.80;99.90;;;;;;5069848;28;20531;-54
2022/10/14 02:12:43;;;;;;;32.08;11.05;;;11.80;99.90;;;;;;5069030;28;20078;-53
2022/10/14 02:15:30;;;;;;;33.22;10.63;;;11.80;99.90;;;;;;5070192;28;20019;-49
2022/10/14 02:18:21;;;;;;;32.88;11.52;;;11.80;99.90;;;;;;5102518;28;20503;-50
2022/10/14 02:21:21;;;;;;;36.42;10.98;;;11.70;99.90;;;;;;5070107;28;20044;-49
2022/10/14 02:23:55;;;;;;;32.17;10.05;;;11.70;99.90;;;;;;5070100;28;20064;-48
2022/10/14 02:26:21;;;;;;;32.20;10.98;;;11.60;99.90;;;;;;5069249;28;20099;-49
2022/10/14 02:28:49;;;;;;;35.10;9.95;;;11.60;99.90;;;;;;5074160;28;20029;-49
2022/10/14 02:31:17;;;;;;;30.95;10.55;;;11.60;99.90;;;;;;5074971;28;20060;-53
2022/10/14 02:33:50;;;;;;;36.42;10.65;;;11.70;99.90;;;;;;5073629;28;20021;-51
2022/10/14 02:36:19;;;;;;;31.27;10.43;;;11.70;99.90;;;;;;5074126;28;20028;-55
2022/10/14 02:38:47;;;;;;;31.35;10.55;;;11.70;99.90;;;;;;5073792;28;20033;-55
2022/10/14 02:41:19;;;;;;;32.50;11.35;;;11.70;99.90;;;;;;5087795;28;20026;-53
2022/10/14 02:43:45;;;;;;;31.83;9.82;;;11.70;99.90;;;;;;5093864;28;20036;-53
2022/10/14 02:46:11;;;;;;;29.02;9.75;;;11.80;99.90;;;;;;5093774;28;20016;-52
2022/10/14 02:48:37;;;;;;;29.05;10.50;;;11.80;99.90;;;;;;5092996;28;20036;-54
2022/10/14 02:51:02;;;;;;;28.10;10.80;;;11.70;99.90;;;;;;5092382;28;20476;-55
2022/10/14 02:53:29;;;;;;;27.08;11.20;;;11.70;99.90;;;;;;5093005;28;20424;-53
2022/10/14 02:55:55;;;;;;;28.63;10.10;;;11.70;99.90;;;;;;5093713;28;20115;-58
2022/10/14 02:58:21;;;;;;;29.30;10.73;;;11.70;99.90;;;;;;5093416;28;20146;-55
2022/10/14 03:00:48;;;;;;;24.58;9.93;;;11.70;99.90;;;;;;5091824;28;20147;-55
2022/10/14 03:03:14;;;;;;;27.42;9.85;;;11.70;99.90;;;;;;5093699;28;20042;-58
2022/10/14 03:05:39;;;;;;;29.45;10.75;;;11.70;99.90;;;;;;5093416;28;20024;-55
2022/10/14 03:08:05;;;;;;;25.00;9.85;;;11.70;99.90;;;;;;5092613;28;20020;-53
2022/10/14 03:10:31;;;;;;;31.33;11.00;;;11.60;99.90;;;;;;5093336;28;20352;-52
2022/10/14 03:12:56;;;;;;;26.17;10.60;;;11.60;99.90;;;;;;5091639;28;20381;-57
2022/10/14 03:15:22;;;;;;;28.20;10.13;;;11.60;99.90;;;;;;5090762;28;20081;-50
2022/10/14 03:17:48;;;;;;;30.08;11.38;;;11.60;99.90;;;;;;5092702;28;20020;-56
2022/10/14 03:20:14;;;;;;;29.25;9.32;;;11.60;99.90;;;;;;5093047;28;20044;-56
2022/10/14 03:22:40;;;;;;;30.85;9.75;;;11.60;99.90;;;;;;5092367;28;20902;-55
2022/10/14 03:25:06;;;;;;;25.52;9.90;;;11.60;99.90;;;;;;5093010;28;20405;-51
2022/10/14 03:27:32;;;;;;;25.63;9.90;;;11.50;99.90;;;;;;5092848;28;20043;-56
2022/10/14 03:29:58;;;;;;;25.27;10.43;;;11.50;99.90;;;;;;5092326;28;20020;-54
2022/10/14 03:32:23;;;;;;;26.67;10.60;;;11.50;99.90;;;;;;5092564;28;20024;-54
2022/10/14 03:34:49;;;;;;;24.80;11.13;;;11.50;99.90;;;;;;5090471;28;20042;-52
2022/10/14 03:37:15;;;;;;;25.73;10.23;;;11.50;99.90;;;;;;5093107;28;20016;-58
2022/10/14 03:39:40;;;;;;;25.15;10.57;;;11.50;99.90;;;;;;5091375;28;20024;-54
2022/10/14 03:42:06;;;;;;;23.98;10.25;;;11.50;99.90;;;;;;5092066;28;20032;-55
2022/10/14 03:44:31;;;;;;;25.33;10.40;;;11.50;99.90;;;;;;5092316;28;20052;-54
2022/10/14 03:46:57;;;;;;;25.83;10.38;;;11.50;99.90;;;;;;5092514;28;20020;-53
2022/10/14 03:49:23;;;;;;;24.35;10.02;;;11.50;99.90;;;;;;5091621;28;20032;-54
2022/10/14 03:51:48;;;;;;;27.63;10.07;;;11.50;99.90;;;;;;5092656;28;20020;-52
2022/10/14 03:54:14;;;;;;;29.05;11.07;;;11.50;99.90;;;;;;5092476;28;20120;-53
2022/10/14 03:56:39;;;;;;;26.23;9.77;;;11.50;99.90;;;;;;5091358;28;20025;-53
2022/10/14 03:59:05;;;;;;;27.58;10.27;;;11.50;99.90;;;;;;5092230;28;20038;-51
2022/10/14 04:01:30;;;;;;;30.83;11.48;;;11.50;99.90;;;;;;5091726;28;20139;-53
2022/10/14 04:03:56;;;;;;;26.92;10.38;;;11.50;99.90;;;;;;5091477;28;20123;-54
2022/10/14 04:06:21;;;;;;;31.80;11.52;;;11.50;99.90;;;;;;5091907;28;20047;-53
2022/10/14 04:08:47;;;;;;;28.73;12.32;;;11.50;99.90;;;;;;5091946;28;20032;-52
2022/10/14 04:11:13;;;;;;;31.80;11.80;;;11.50;99.90;;;;;;5091856;28;20028;-54
2022/10/14 04:13:38;;;;;;;29.38;11.93;;;11.50;99.90;;;;;;5091670;28;20029;-52
2022/10/14 04:16:08;;;;;;;30.95;11.85;;;11.60;99.90;;;;;;5091509;28;20024;-54
2022/10/14 04:18:34;;;;;;;27.92;11.10;;;11.60;99.90;;;;;;5091382;28;20449;-53
2022/10/14 04:21:06;;;;;;;31.25;11.70;;;11.60;99.90;;;;;;5091789;28;20091;-51
2022/10/14 04:23:32;;;;;;;30.27;12.07;;;11.60;99.90;;;;;;5090894;28;20082;-56
2022/10/14 04:25:57;;;;;;;32.70;12.63;;;11.60;99.90;;;;;;5091942;28;20448;-55
2022/10/14 04:28:23;;;;;;;37.35;13.20;;;11.60;99.90;;;;;;5091418;28;20107;-53
2022/10/14 04:30:49;;;;;;;34.15;11.43;;;11.60;99.90;;;;;;5091105;28;20481;-49
2022/10/14 04:33:15;;;;;;;39.10;13.50;;;11.60;99.90;;;;;;5091697;28;20507;-52
2022/10/14 04:35:40;;;;;;;33.08;12.48;;;11.60;99.90;;;;;;5091304;28;20063;-50
2022/10/14 04:38:06;;;;;;;38.50;12.75;;;11.60;99.90;;;;;;5090900;28;20085;-53
2022/10/14 04:40:31;;;;;;;30.67;12.00;;;11.70;99.90;;;;;;5091608;28;20077;-55
2022/10/14 04:42:58;;;;;;;30.40;11.65;;;11.70;99.90;;;;;;5091428;28;20547;-54
2022/10/14 04:45:24;;;;;;;35.70;12.63;;;11.70;99.90;;;;;;5090698;28;20067;-50
2022/10/14 04:47:51;;;;;;;30.30;12.07;;;11.70;99.90;;;;;;5091286;28;20067;-53
2022/10/14 04:50:18;;;;;;;35.30;13.32;;;11.70;99.90;;;;;;5091201;28;20461;-53
2022/10/14 04:52:43;;;;;;;37.13;13.23;;;11.70;99.90;;;;;;5090593;28;20021;-50
2022/10/14 04:55:10;;;;;;;39.00;12.27;;;11.70;99.90;;;;;;5091469;28;20027;-54
2022/10/14 04:57:35;;;;;;;37.45;13.02;;;11.70;99.90;;;;;;5069448;28;20048;-52
2022/10/14 05:00:02;;;;;;;32.40;12.68;;;11.70;99.90;;;;;;5068362;28;20370;-54
2022/10/14 05:02:28;;;;;;;35.28;11.85;;;11.70;99.90;;;;;;5069295;28;20178;-54
2022/10/14 05:04:54;;;;;;;32.20;12.65;;;11.70;99.90;;;;;;5071007;28;20099;-55
2022/10/14 05:07:19;;;;;;;33.95;12.40;;;11.70;99.90;;;;;;5069781;28;20121;-54
2022/10/14 05:09:45;;;;;;;36.40;13.48;;;11.70;99.90;;;;;;5070899;28;20243;-53
2022/10/14 05:12:10;;;;;;;35.42;13.60;;;11.70;99.90;;;;;;5070875;28;20019;-50
2022/10/14 05:14:36;;;;;;;35.90;12.93;;;11.70;99.90;;;;;;5069777;28;20043;-52
2022/10/14 05:17:02;;;;;;;37.85;14.20;;;11.70;99.90;;;;;;5070703;28;20020;-55
2022/10/14 05:19:27;;;;;;;33.88;13.48;;;11.70;99.90;;;;;;5069485;28;20412;-57
2022/10/14 05:21:53;;;;;;;35.08;12.20;;;11.80;99.90;;;;;;5070559;28;20039;-53
2022/10/14 05:24:18;;;;;;;40.75;14.15;;;11.70;99.90;;;;;;5102814;28;20392;-48
2022/10/14 05:26:44;;;;;;;35.35;14.25;;;11.70;99.90;;;;;;5070010;28;20081;-54
2022/10/14 05:29:11;;;;;;;38.38;15.18;;;11.70;99.90;;;;;;5070661;28;20506;-53
2022/10/14 05:31:36;;;;;;;39.35;14.52;;;11.70;99.90;;;;;;5070207;28;20029;-55
2022/10/14 05:34:02;;;;;;;38.05;13.77;;;11.70;99.90;;;;;;5070050;28;20036;-57
2022/10/14 05:36:28;;;;;;;39.38;15.02;;;11.80;99.90;;;;;;5070246;28;20061;-53
2022/10/14 05:38:57;;;;;;;42.30;15.52;;;11.80;99.90;;;;;;5080746;28;20020;-52
2022/10/14 05:41:26;;;;;;;44.60;16.33;;;11.80;99.90;;;;;;5109891;28;20062;-55
2022/10/14 05:43:51;;;;;;;44.47;15.40;;;11.80;99.90;;;;;;5110619;28;20038;-56
2022/10/14 05:46:18;;;;;;;46.90;15.27;;;11.80;99.90;;;;;;5109339;28;20161;-50
2022/10/14 05:48:44;;;;;;;42.17;15.57;;;11.80;99.90;;;;;;5109640;28;20028;-58
2022/10/14 05:51:10;;;;;;;42.78;15.85;;;11.80;99.90;;;;;;5110947;28;20019;-57
2022/10/14 05:53:38;;;;;;;41.70;16.75;;;11.80;99.90;;;;;;5110284;28;20421;-55
2022/10/14 05:56:05;;;;;;;47.10;16.23;;;11.80;99.90;;;;;;5108842;28;20035;-62
2022/10/14 05:58:32;;;;;;;45.72;15.70;;;11.80;99.90;;;;;;5110860;28;20023;-59
2022/10/14 06:01:01;;;;;;;42.05;16.33;;;11.90;99.90;;;;;;5110789;28;20055;-61
2022/10/14 06:03:27;;;;;;;46.40;17.08;;;11.90;99.90;;;;;;5113752;28;20590;-58
2022/10/14 06:05:53;;;;;;;50.00;15.88;;;11.90;99.90;;;;;;5115243;28;20016;-66
2022/10/14 06:08:19;;;;;;;47.00;16.05;;;12.00;99.90;;;;;;5114764;28;20031;-52
2022/10/14 06:10:45;;;;;;;39.33;16.00;;;12.00;99.90;;;;;;5080813;28;20024;-63
2022/10/14 06:13:11;;;;;;;48.00;17.83;;;12.00;99.90;;;;;;5092184;28;20032;-55
2022/10/14 06:15:36;;;;;;;39.72;14.93;;;12.00;99.90;;;;;;5093283;28;20440;-61
2022/10/14 06:18:02;;;;;;;50.90;17.90;;;12.10;99.90;;;;;;5092657;28;20081;-55
2022/10/14 06:20:28;;;;;;;45.28;18.17;;;12.10;99.90;;;;;;5091872;28;20074;-54
2022/10/14 06:22:54;;;;;;;46.83;18.30;;;12.10;99.90;;;;;;5091450;28;20498;-56
2022/10/14 06:25:19;;;;;;;52.25;18.45;;;12.10;99.90;;;;;;5092797;28;20024;-54
2022/10/14 06:27:45;;;;;;;44.05;18.25;;;12.20;99.90;;;;;;5092743;28;20016;-51
2022/10/14 06:30:11;;;;;;;47.03;17.83;;;12.20;99.90;;;;;;5092282;28;20031;-66
2022/10/14 06:32:37;;;;;;;52.13;18.55;;;12.20;99.90;;;;;;5092941;28;20554;-52
2022/10/14 06:35:03;;;;;;;51.45;19.77;;;12.30;99.90;;;;;;5093446;28;20031;-63
2022/10/14 06:37:28;;;;;;;47.33;19.38;;;12.30;99.90;;;;;;5092875;28;20036;-48
2022/10/14 06:39:54;;;;;;;44.90;18.45;;;12.30;99.90;;;;;;5091324;28;20138;-53
2022/10/14 06:42:20;;;;;;;37.85;18.30;;;12.40;99.90;;;;;;5092080;28;20017;-55
2022/10/14 06:44:45;;;;;;;45.20;17.38;;;12.40;99.90;;;;;;5090464;28;20569;-55
2022/10/14 06:47:11;;;;;;;48.08;20.88;;;12.40;99.90;;;;;;5093692;28;20035;-53
2022/10/14 06:49:36;;;;;;;43.47;18.30;;;12.50;99.90;;;;;;5093343;28;20110;-57
2022/10/14 06:52:03;;;;;;;43.55;19.13;;;12.50;99.90;;;;;;5093621;28;20020;-49
2022/10/14 06:54:28;;;;;;;41.88;18.45;;;12.50;99.90;;;;;;5093513;28;20024;-53
2022/10/14 06:56:54;;;;;;;39.33;17.98;;;12.50;99.90;;;;;;5093888;28;20028;-53
2022/10/14 06:59:19;;;;;;;40.25;18.08;;;12.60;99.90;;;;;;5091386;28;20020;-55
2022/10/14 07:01:45;;;;;;;39.03;19.10;;;12.60;99.90;;;;;;5093791;28;20370;-51
2022/10/14 07:04:11;;;;;;;46.85;18.55;;;12.70;99.90;;;;;;5093554;28;20051;-56
2022/10/14 07:06:37;;;;;;;47.67;20.30;;;12.70;99.90;;;;;;5092671;28;20043;-57
2022/10/14 07:09:03;;;;;;;41.92;19.13;;;12.80;99.90;;;;;;5090669;28;20020;-49
2022/10/14 07:11:29;;;;;;;37.25;17.13;;;12.80;99.90;;;;;;5092747;28;20046;-52
2022/10/14 07:13:55;;;;;;;40.35;17.23;;;12.80;99.90;;;;;;5092787;28;20020;-49
2022/10/14 07:16:21;;;;;;;39.15;15.77;;;12.90;99.90;;;;;;5093089;28;20043;-53
2022/10/14 07:18:48;;;;;;;37.60;17.98;;;12.90;99.90;;;;;;5093398;28;20035;-55
2022/10/14 07:21:14;;;;;;;36.53;16.98;;;13.00;99.90;;;;;;5092679;28;20149;-55
2022/10/14 07:23:39;;;;;;;30.83;15.95;;;13.00;99.90;;;;;;5092790;28;20032;-58
2022/10/14 07:26:05;;;;;;;32.70;15.20;;;13.00;99.90;;;;;;5092379;28;20111;-50
2022/10/14 07:28:32;;;;;;;33.20;15.48;;;13.10;99.90;;;;;;5092861;28;20047;-55
2022/10/14 07:31:04;;;;;;;35.05;16.35;;;13.10;99.90;;;;;;5093114;28;20063;-54
2022/10/14 07:33:30;;;;;;;30.23;15.25;;;13.10;99.90;;;;;;5092147;28;20028;-57
2022/10/14 07:36:03;;;;;;;26.27;12.57;;;13.20;99.90;;;;;;5092929;28;20111;-56
2022/10/14 07:38:29;;;;;;;34.42;15.93;;;13.20;99.90;;;;;;5092659;28;20028;-58
2022/10/14 07:40:57;;;;;;;26.13;12.82;;;13.20;99.90;;;;;;5092583;28;20027;-55
2022/10/14 07:43:22;;;;;;;28.05;13.25;;;13.30;99.90;;;;;;5092398;28;20036;-59
2022/10/14 07:45:49;;;;;;;27.48;12.63;;;13.30;99.90;;;;;;5092557;28;20078;-50
2022/10/14 07:48:15;;;;;;;24.02;11.65;;;13.40;99.90;;;;;;5092232;28;20640;-56
2022/10/14 07:50:41;;;;;;;25.75;12.18;;;13.40;99.90;;;;;;5092176;28;20028;-53
2022/10/14 07:53:06;;;;;;;23.35;10.95;;;13.50;99.90;;;;;;5093079;28;20362;-53
2022/10/14 07:55:32;;;;;;;23.40;11.35;;;13.50;99.90;;;;;;5091656;28;20435;-57
2022/10/14 07:57:58;;;;;;;21.30;10.63;;;13.60;99.90;;;;;;5092440;28;20020;-54
2022/10/14 08:00:23;;;;;;;22.77;11.52;;;13.60;99.90;;;;;;5092018;28;20164;-52
2022/10/14 08:02:49;;;;;;;25.13;10.80;;;13.70;99.90;;;;;;5091881;28;20036;-53
2022/10/14 08:05:15;;;;;;;20.33;11.20;;;13.70;99.90;;;;;;5092437;28;20055;-55
2022/10/14 08:07:41;;;;;;;21.67;10.43;;;13.70;99.90;;;;;;5091870;28;20093;-55
2022/10/14 08:10:06;;;;;;;16.55;8.77;;;13.80;99.90;;;;;;5091990;28;20024;-55
2022/10/14 08:12:32;;;;;;;19.33;9.88;;;13.80;99.90;;;;;;5091757;28;20024;-47
2022/10/14 08:14:58;;;;;;;17.40;8.82;;;13.80;99.90;;;;;;5092509;28;20520;-56
2022/10/14 08:17:24;;;;;;;16.70;8.65;;;13.80;99.90;;;;;;5090842;28;20020;-51
2022/10/14 08:19:50;;;;;;;17.30;8.90;;;13.90;99.90;;;;;;5092044;28;20508;-66
2022/10/14 08:22:15;;;;;;;15.27;8.57;;;13.90;99.90;;;;;;5091229;28;20071;-62
2022/10/14 08:24:41;;;;;;;16.23;8.02;;;13.90;99.90;;;;;;5091214;28;20031;-53
2022/10/14 08:27:08;;;;;;;16.08;8.65;;;13.90;99.90;;;;;;5092269;28;20399;-54
2022/10/14 08:29:34;;;;;;;17.25;8.65;;;14.00;99.90;;;;;;5090869;28;20085;-64
2022/10/14 08:32:00;;;;;;;19.45;9.73;;;14.00;99.90;;;;;;5092217;28;20020;-52
2022/10/14 08:34:26;;;;;;;16.63;8.82;;;14.00;99.90;;;;;;5091384;28;20080;-67
2022/10/14 08:36:52;;;;;;;17.65;8.73;;;14.10;99.90;;;;;;5091647;28;20016;-62
2022/10/14 08:39:18;;;;;;;16.70;8.98;;;14.10;99.90;;;;;;5091171;28;20024;-51
2022/10/14 08:42:22;;;;;;;14.32;7.88;;;14.20;99.90;;;;;;5091885;28;20028;-51
2022/10/14 08:44:54;;;;;;;18.02;7.97;;;14.20;99.90;;;;;;5091130;28;20146;-52
2022/10/14 08:47:30;;;;;;;16.98;8.52;;;14.20;99.90;;;;;;5091086;28;20097;-55
2022/10/14 08:50:01;;;;;;;16.65;8.98;;;14.30;99.90;;;;;;5091601;28;20050;-49
2022/10/14 08:52:49;;;;;;;15.13;8.35;;;14.30;99.90;;;;;;5089188;28;20119;-50
2022/10/14 08:55:35;;;;;;;17.83;9.32;;;14.30;99.90;;;;;;5091442;28;20028;-54
2022/10/14 08:58:27;;;;;;;17.00;8.82;;;14.30;99.90;;;;;;5093880;28;20383;-55
2022/10/14 09:00:54;;;;;;;15.23;8.55;;;14.30;99.90;;;;;;5091764;28;20016;-63
2022/10/14 09:03:35;;;;;;;17.27;9.73;;;14.40;99.90;;;;;;5090850;28;20039;-55
2022/10/14 09:06:08;;;;;;;18.33;9.95;;;14.40;99.90;;;;;;5090736;28;20103;-54
2022/10/14 09:08:44;;;;;;;16.08;9.30;;;14.40;99.90;;;;;;5090792;28;20020;-55
2022/10/14 09:11:14;;;;;;;18.20;10.40;;;14.40;99.90;;;;;;5091222;28;20036;-57
2022/10/14 09:13:42;;;;;;;15.15;8.60;;;14.50;99.90;;;;;;5090322;28;20111;-60
2022/10/14 09:16:25;;;;;;;20.02;10.85;;;14.50;99.90;;;;;;5091200;28;20034;-54
2022/10/14 09:19:03;;;;;;;21.23;11.70;;;14.50;99.90;;;;;;5090240;28;20035;-56
2022/10/14 09:21:38;;;;;;;19.83;11.90;;;14.50;99.90;;;;;;5090476;28;20092;-55
2022/10/14 09:24:25;;;;;;;19.13;11.00;;;14.60;99.90;;;;;;5090715;28;20113;-59
2022/10/14 09:26:58;;;;;;;26.60;12.80;;;14.60;99.90;;;;;;5090322;28;20024;-52
2022/10/14 09:29:28;;;;;;;24.98;12.48;;;14.70;99.90;;;;;;5090298;28;20035;-54
2022/10/14 09:32:06;;;;;;;28.77;15.02;;;14.70;99.90;;;;;;5090729;28;20480;-55
2022/10/14 09:34:46;;;;;;;33.22;16.98;;;14.70;99.90;;;;;;5090051;28;20031;-57
2022/10/14 09:37:24;;;;;;;26.30;14.80;;;14.70;99.90;;;;;;5089949;28;20589;-56
2022/10/14 09:39:52;;;;;;;21.95;11.35;;;14.70;99.90;;;;;;5090157;28;20044;-56
2022/10/14 09:42:21;;;;;;;18.80;10.10;;;14.80;99.90;;;;;;5090533;28;20495;-55
2022/10/14 09:45:13;;;;;;;17.92;10.40;;;14.70;99.90;;;;;;5090769;28;20046;-51
2022/10/14 09:48:02;;;;;;;17.45;9.85;;;14.80;99.90;;;;;;5089892;28;20030;-52
2022/10/14 09:50:54;;;;;;;17.77;9.93;;;14.70;99.90;;;;;;5090466;28;20020;-55
2022/10/14 09:53:40;;;;;;;18.13;9.80;;;14.80;99.90;;;;;;5085122;28;20455;-55
2022/10/14 09:56:08;;;;;;;16.30;8.55;;;14.80;99.90;;;;;;5090465;28;20524;-52
2022/10/14 09:58:49;;;;;;;13.63;8.35;;;14.80;99.90;;;;;;5089995;28;20032;-54
2022/10/14 10:01:18;;;;;;;14.93;9.07;;;14.80;99.90;;;;;;5089753;28;20480;-48
2022/10/14 10:03:44;;;;;;;18.77;10.60;;;14.90;99.90;;;;;;5090618;28;20556;-55
2022/10/14 10:06:13;;;;;;;15.95;10.48;;;14.90;99.90;;;;;;5090389;28;20107;-57
2022/10/14 10:08:57;;;;;;;23.15;12.13;;;14.90;99.90;;;;;;5089471;28;20111;-59
2022/10/14 10:11:36;;;;;;;21.88;14.00;;;14.90;99.90;;;;;;5089994;28;20020;-56
2022/10/14 10:14:32;;;;;;;21.13;13.75;;;14.90;99.90;;;;;;5090532;28;20016;-59
2022/10/14 10:17:06;;;;;;;19.52;12.07;;;14.90;99.90;;;;;;5085066;28;20043;-50
2022/10/14 10:19:40;;;;;;;32.03;19.35;;;15.00;99.90;;;;;;5089587;28;20058;-58
2022/10/14 10:22:18;;;;;;;27.40;16.83;;;15.10;99.90;;;;;;5089628;28;20035;-56
2022/10/14 10:24:49;;;;;;;24.33;14.85;;;15.10;99.90;;;;;;5090151;28;20486;-56
2022/10/14 10:27:27;;;;;;;;;;;15.20;99.90;;;;;;5090861;28;20063;-53
2022/10/14 10:29:55;;;;;;;21.15;14.35;;;15.20;99.90;;;;;;5089754;28;19908;-56
2022/10/14 10:32:28;;;;;;;21.05;13.77;;;15.30;99.90;;;;;;5088634;28;20032;-58
2022/10/14 10:35:05;;;;;;;20.38;13.35;;;15.40;99.90;;;;;;5090242;28;20056;-61
2022/10/14 10:37:55;;;;;;;21.10;12.82;;;15.40;99.90;;;;;;5089432;28;20432;-58
2022/10/14 10:40:46;;;;;;;19.63;13.00;;;15.50;99.90;;;;;;5085591;28;20036;-60
2022/10/14 10:43:25;;;;;;;18.30;11.73;;;15.50;99.90;;;;;;5089787;28;20051;-54
2022/10/14 10:46:06;;;;;;;29.90;21.48;;;15.60;99.90;;;;;;5090152;28;20024;-56
2022/10/14 10:49:06;;;;;;;17.98;12.82;;;15.60;99.90;;;;;;5091910;28;20031;-56
2022/10/14 10:51:52;;;;;;;16.73;10.77;;;15.70;99.90;;;;;;5091342;28;20032;-56
2022/10/14 10:54:52;;;;;;;17.73;12.68;;;15.80;99.90;;;;;;5093419;28;20017;-52
2022/10/14 10:57:30;;;;;;;25.75;17.73;;;15.90;99.90;;;;;;5093010;28;20462;-54
2022/10/14 11:00:06;;;;;;;37.47;24.08;;;15.90;99.90;;;;;;5093858;28;20111;-56
2022/10/14 11:03:08;;;;;;;28.58;20.33;;;15.90;99.90;;;;;;5093249;28;20433;-52
2022/10/14 11:05:43;;;;;;;;;;;15.90;99.90;;;;;;5092595;28;20032;-54
2022/10/14 11:14:11;;;;;;;24.38;16.75;;;15.90;99.90;;;;;;5073414;28;20226;-53
2022/10/14 11:16:49;;;;;;;22.70;16.33;;;16.00;99.90;;;;;;5072820;28;20032;-56
2022/10/14 11:19:29;;;;;;;21.17;14.35;;;16.10;99.90;;;;;;5072333;28;20100;-56
2022/10/14 11:22:04;;;;;;;24.65;16.95;;;16.20;99.90;;;;;;5073050;28;20119;-55
2022/10/14 11:24:53;;;;;;;23.23;17.42;;;16.20;99.90;;;;;;5071326;28;20074;-54
2022/10/14 11:27:53;;;;;;;25.85;20.25;;;16.30;99.90;;;;;;5072181;28;20025;-59
2022/10/14 11:30:28;;;;;;;19.70;13.68;;;16.30;99.90;;;;;;5064114;28;20063;-56
2022/10/14 11:33:18;;;;;;;26.25;18.15;;;16.30;99.90;;;;;;5072241;28;20104;-55
2022/10/14 11:36:02;;;;;;;21.98;13.73;;;16.30;99.90;;;;;;5072720;28;20384;-50
2022/10/14 11:38:49;;;;;;;14.82;10.23;;;16.20;99.90;;;;;;5072580;28;20032;-57
2022/10/14 11:41:40;;;;;;;17.25;12.20;;;16.20;99.90;;;;;;5071932;28;20056;-61
2022/10/14 11:44:05;;;;;;;19.40;14.63;;;16.20;99.90;;;;;;5105076;28;20032;-55
2022/10/14 11:46:36;;;;;;;19.83;14.38;;;16.20;99.90;;;;;;5071667;28;20504;-51
2022/10/14 11:49:19;;;;;;;22.25;16.42;;;16.20;99.90;;;;;;5072652;28;20103;-51
2022/10/14 11:51:54;;;;;;;19.08;13.18;;;16.20;99.90;;;;;;5072461;28;20024;-56
2022/10/14 11:54:29;;;;;;;15.30;10.80;;;16.20;99.90;;;;;;5071647;28;20439;-51
2022/10/14 11:57:03;;;;;;;22.80;16.90;;;16.10;99.90;;;;;;5105381;28;20414;-56
2022/10/14 11:59:58;;;;;;;18.73;14.65;;;16.10;99.90;;;;;;5071363;28;20020;-53
2022/10/14 12:02:34;;;;;;;15.45;11.43;;;16.10;99.90;;;;;;5071170;28;20044;-51
2022/10/14 12:05:09;;;;;;;13.25;9.00;;;16.10;99.90;;;;;;5072233;28;20339;-57
2022/10/14 12:07:45;;;;;;;11.52;8.00;;;16.10;99.90;;;;;;5071107;28;20024;-53
2022/10/14 12:10:28;;;;;;;11.73;7.93;;;16.10;99.90;;;;;;5072508;28;20060;-51
2022/10/14 12:12:55;;;;;;;11.05;7.68;;;16.10;99.90;;;;;;5072263;28;20070;-59
2022/10/14 12:15:24;;;;;;;12.20;7.25;;;16.00;99.90;;;;;;5071129;28;20469;-55
2022/10/14 12:18:03;;;;;;;12.68;8.13;;;16.00;99.90;;;;;;5072052;28;20021;-56
2022/10/14 12:20:47;;;;;;;11.13;7.75;;;16.00;99.90;;;;;;5071656;28;20047;-52
2022/10/14 12:23:21;;;;;;;13.50;9.00;;;16.00;99.90;;;;;;5071390;28;20037;-56
2022/10/14 12:25:56;;;;;;;12.10;8.45;;;16.00;99.90;;;;;;5071969;28;20054;-52
2022/10/14 12:28:22;;;;;;;12.10;8.57;;;16.00;99.90;;;;;;5071039;28;20074;-51
2022/10/14 12:30:47;;;;;;;10.93;8.02;;;16.00;99.90;;;;;;5070515;28;20021;-53
2022/10/14 12:33:17;;;;;;;12.10;7.90;;;16.00;99.90;;;;;;5070583;28;20538;-55
2022/10/14 12:35:47;;;;;;;11.07;7.75;;;16.00;99.90;;;;;;5070896;28;20030;-54
2022/10/14 12:38:13;;;;;;;11.25;8.32;;;16.10;99.90;;;;;;5071557;28;20039;-56
2022/10/14 12:40:39;;;;;;;11.88;7.80;;;16.00;99.90;;;;;;5071374;28;20028;-56
2022/10/14 12:43:22;;;;;;;10.60;7.57;;;16.00;99.90;;;;;;5070909;28;20033;-55
2022/10/14 12:46:10;;;;;;;12.60;9.35;;;16.00;99.90;;;;;;5071586;28;20113;-53
2022/10/14 12:48:44;;;;;;;18.42;14.50;;;16.10;99.90;;;;;;5071391;28;20027;-50
2022/10/14 12:51:15;;;;;;;17.13;10.73;;;16.10;99.90;;;;;;5070933;28;20380;-55
2022/10/14 12:54:07;;;;;;;;;;;16.10;99.90;;;;;;5071405;28;20103;-58
2022/10/14 12:56:52;;;;;;;11.93;8.70;;;16.00;99.90;;;;;;5069932;28;20345;-55
2022/10/14 12:59:32;;;;;;;13.77;8.23;;;16.00;99.90;;;;;;5070881;28;20099;-54